Time;durP1;ratioP1;P1;durP2;ratioP2;P2;SDS_P1;SDS_P2;PMS_P1;PMS_P2;Temp;Humidity;BMP_temperature;BMP_pressure;BME280_temperature;BME280_humidity;BME280_pressure;Samples;Min_cycle;Max_cycle;Signal;HPM_P1;HPM_P2
2023/07/09 00:01:17;;;;;;;11.82;7.30;;;21.50;99.90;;;;;;5054784;28;20078;-72
2023/07/09 00:03:43;;;;;;;11.75;7.70;;;21.40;99.90;;;;;;5055248;28;20116;-72
2023/07/09 00:06:09;;;;;;;9.85;6.97;;;21.30;99.90;;;;;;5054687;28;20162;-72
2023/07/09 00:08:38;;;;;;;9.52;7.20;;;21.30;99.90;;;;;;5056221;28;20049;-73
2023/07/09 00:11:03;;;;;;;10.73;6.75;;;21.20;99.90;;;;;;5073027;28;20049;-72
2023/07/09 00:13:29;;;;;;;9.80;6.97;;;21.30;99.90;;;;;;5056182;28;20044;-72
2023/07/09 00:15:59;;;;;;;9.50;7.13;;;21.20;99.90;;;;;;5058208;28;20090;-72
2023/07/09 00:18:25;;;;;;;10.30;7.55;;;21.20;99.90;;;;;;5073268;28;20036;-72
2023/07/09 00:20:50;;;;;;;10.63;7.13;;;21.20;99.90;;;;;;5057173;28;20036;-72
2023/07/09 00:23:19;;;;;;;10.60;7.20;;;21.10;99.90;;;;;;5057901;28;20075;-72
2023/07/09 00:25:45;;;;;;;10.98;7.90;;;21.10;99.90;;;;;;5057052;28;20044;-72
2023/07/09 00:28:20;;;;;;;11.07;7.22;;;21.10;99.90;;;;;;5074488;28;20140;-72
2023/07/09 00:30:47;;;;;;;11.88;7.38;;;21.00;99.90;;;;;;5074693;28;20563;-72
2023/07/09 00:33:18;;;;;;;11.55;8.05;;;20.90;99.90;;;;;;5073160;28;20051;-72
2023/07/09 00:35:46;;;;;;;10.45;7.72;;;20.90;99.90;;;;;;5057722;28;20580;-72
2023/07/09 00:38:22;;;;;;;12.48;7.80;;;20.90;99.90;;;;;;5057205;28;20071;-72
2023/07/09 00:41:00;;;;;;;10.38;7.60;;;20.90;99.90;;;;;;5054490;28;20044;-72
2023/07/09 00:43:30;;;;;;;11.68;7.25;;;20.80;99.90;;;;;;5071571;28;20048;-72
2023/07/09 00:46:18;;;;;;;11.43;7.75;;;20.70;99.90;;;;;;5057720;28;20043;-72
2023/07/09 00:48:48;;;;;;;10.98;7.65;;;20.70;99.90;;;;;;5055644;28;20045;-72
2023/07/09 00:51:17;;;;;;;10.20;6.95;;;20.70;99.90;;;;;;5037352;28;20037;-72
2023/07/09 00:53:48;;;;;;;10.25;7.05;;;20.70;99.90;;;;;;5071063;28;20091;-73
2023/07/09 00:56:23;;;;;;;10.75;7.47;;;20.80;99.90;;;;;;5070652;28;20041;-72
2023/07/09 00:58:48;;;;;;;9.98;7.05;;;20.70;99.90;;;;;;5070865;28;20045;-72
2023/07/09 01:01:18;;;;;;;11.05;7.30;;;20.70;99.90;;;;;;5056328;28;20037;-72
2023/07/09 01:03:50;;;;;;;10.68;7.68;;;20.70;99.90;;;;;;5071526;28;20040;-72
2023/07/09 01:06:23;;;;;;;10.02;7.32;;;20.80;99.90;;;;;;5060151;28;20048;-72
2023/07/09 01:08:53;;;;;;;11.95;8.30;;;20.80;99.90;;;;;;5067584;28;20074;-72
2023/07/09 01:11:21;;;;;;;11.27;7.60;;;20.80;99.90;;;;;;5071721;28;20036;-72
2023/07/09 01:13:50;;;;;;;11.93;7.05;;;20.80;99.90;;;;;;5057219;28;20049;-72
2023/07/09 01:16:17;;;;;;;10.30;6.88;;;20.70;99.90;;;;;;5073009;28;20496;-72
2023/07/09 01:18:43;;;;;;;10.90;7.63;;;20.70;99.90;;;;;;5053161;28;20527;-72
2023/07/09 01:21:15;;;;;;;11.48;7.30;;;20.60;99.90;;;;;;5053102;28;20494;-72
2023/07/09 01:23:43;;;;;;;10.75;7.15;;;20.60;99.90;;;;;;5065674;28;20037;-72
2023/07/09 01:26:12;;;;;;;9.05;6.35;;;20.50;99.90;;;;;;5071550;28;20044;-72
2023/07/09 01:28:41;;;;;;;9.98;7.07;;;20.50;99.90;;;;;;5061133;28;20049;-72
2023/07/09 01:31:08;;;;;;;10.63;6.30;;;20.50;99.90;;;;;;5054345;28;20535;-72
2023/07/09 01:33:33;;;;;;;11.52;7.45;;;20.60;99.90;;;;;;5070693;28;20044;-72
2023/07/09 01:36:00;;;;;;;10.68;7.13;;;20.60;99.90;;;;;;5063021;28;20059;-72
2023/07/09 01:38:32;;;;;;;9.50;7.15;;;20.50;99.90;;;;;;5072414;28;20528;-72
2023/07/09 01:40:57;;;;;;;11.02;7.30;;;20.40;99.90;;;;;;5071652;28;20067;-72
2023/07/09 01:43:25;;;;;;;12.05;7.50;;;20.40;99.90;;;;;;5044568;28;20072;-72
2023/07/09 01:45:51;;;;;;;12.20;7.63;;;20.30;99.90;;;;;;5065609;28;20059;-72
2023/07/09 01:48:20;;;;;;;10.43;7.35;;;20.30;99.90;;;;;;5041493;28;20040;-72
2023/07/09 01:50:49;;;;;;;11.52;6.85;;;20.30;99.90;;;;;;5069404;28;20500;-72
2023/07/09 01:53:16;;;;;;;10.18;7.20;;;20.30;99.90;;;;;;5050865;28;20115;-72
2023/07/09 01:55:42;;;;;;;12.38;7.82;;;20.20;99.90;;;;;;5062852;28;20095;-72
2023/07/09 01:58:08;;;;;;;10.85;7.22;;;20.20;99.90;;;;;;5070123;28;20115;-72
2023/07/09 02:00:37;;;;;;;10.43;7.75;;;20.20;99.90;;;;;;5059453;28;20494;-72
2023/07/09 02:03:05;;;;;;;11.05;6.88;;;20.20;99.90;;;;;;5066451;28;20490;-72
2023/07/09 02:05:33;;;;;;;12.75;7.60;;;20.20;99.90;;;;;;5068383;28;20048;-72
2023/07/09 02:07:59;;;;;;;11.07;6.93;;;20.20;99.90;;;;;;5034162;28;20040;-72
2023/07/09 02:10:25;;;;;;;10.38;7.00;;;20.20;99.90;;;;;;5064878;28;20051;-72
2023/07/09 02:12:50;;;;;;;10.52;8.27;;;20.20;99.90;;;;;;5062776;28;20556;-73
2023/07/09 02:15:16;;;;;;;10.75;7.38;;;20.20;99.90;;;;;;5056548;28;20111;-72
2023/07/09 02:17:42;;;;;;;9.73;7.45;;;20.20;99.90;;;;;;5065621;28;20033;-72
2023/07/09 02:20:09;;;;;;;11.20;7.07;;;20.20;99.90;;;;;;5067933;28;20039;-73
2023/07/09 02:22:37;;;;;;;11.18;7.80;;;20.10;99.90;;;;;;5047063;28;20044;-72
2023/07/09 02:25:05;;;;;;;10.25;7.25;;;20.10;99.90;;;;;;5070756;28;20109;-72
2023/07/09 02:27:32;;;;;;;11.63;7.53;;;20.10;99.90;;;;;;5074063;28;20064;-72
2023/07/09 02:29:58;;;;;;;10.90;7.30;;;20.10;99.90;;;;;;5056064;28;20443;-72
2023/07/09 02:32:26;;;;;;;9.65;7.03;;;20.10;99.90;;;;;;5058621;28;20037;-72
2023/07/09 02:34:52;;;;;;;10.48;7.25;;;20.00;99.90;;;;;;5072439;28;20124;-72
2023/07/09 02:37:21;;;;;;;10.70;7.22;;;20.00;99.90;;;;;;5070734;28;20051;-72
2023/07/09 02:39:46;;;;;;;11.68;7.30;;;19.90;99.90;;;;;;5070335;28;20040;-72
2023/07/09 02:42:14;;;;;;;11.52;7.15;;;19.90;99.90;;;;;;5059675;28;20067;-72
2023/07/09 02:44:41;;;;;;;10.13;7.00;;;20.00;99.90;;;;;;5055289;28;20033;-72
2023/07/09 02:47:07;;;;;;;10.27;7.60;;;20.00;99.90;;;;;;5051868;28;20068;-72
2023/07/09 02:49:32;;;;;;;12.43;8.15;;;20.00;99.90;;;;;;5085836;28;20440;-71
2023/07/09 02:51:58;;;;;;;10.38;6.85;;;20.00;99.90;;;;;;5057010;28;20119;-72
2023/07/09 02:54:23;;;;;;;11.00;7.20;;;20.00;99.90;;;;;;5070018;28;20110;-72
2023/07/09 02:56:49;;;;;;;10.55;7.60;;;20.00;99.90;;;;;;5075549;28;20037;-72
2023/07/09 02:59:15;;;;;;;10.50;7.40;;;20.00;99.90;;;;;;5070245;28;20040;-72
2023/07/09 03:01:41;;;;;;;9.55;7.05;;;20.00;99.90;;;;;;5064766;28;20059;-72
2023/07/09 03:04:08;;;;;;;10.18;7.60;;;19.90;99.90;;;;;;5069160;28;20055;-72
2023/07/09 03:06:36;;;;;;;10.73;7.00;;;19.90;99.90;;;;;;5042964;28;20033;-72
2023/07/09 03:09:03;;;;;;;12.07;7.85;;;19.90;99.90;;;;;;5037199;28;20045;-72
2023/07/09 03:11:31;;;;;;;9.23;6.68;;;19.90;99.90;;;;;;5055757;28;20071;-72
2023/07/09 03:13:58;;;;;;;10.75;7.55;;;19.90;99.90;;;;;;5044772;28;20413;-72
2023/07/09 03:16:26;;;;;;;11.45;7.10;;;19.80;99.90;;;;;;5070123;28;20044;-71
2023/07/09 03:18:51;;;;;;;10.90;7.40;;;19.80;99.90;;;;;;5068560;28;20525;-71
2023/07/09 03:21:17;;;;;;;11.50;7.38;;;19.80;99.90;;;;;;5055499;28;20108;-71
2023/07/09 03:23:42;;;;;;;11.30;7.45;;;19.70;99.90;;;;;;5068102;28;20033;-71
2023/07/09 03:26:08;;;;;;;12.38;7.75;;;19.80;99.90;;;;;;5071942;28;20090;-72
2023/07/09 03:28:33;;;;;;;10.77;6.75;;;19.70;99.90;;;;;;5070626;28;20512;-72
2023/07/09 03:30:59;;;;;;;10.35;7.03;;;19.70;99.90;;;;;;5051613;28;20049;-72
2023/07/09 03:33:25;;;;;;;11.63;7.80;;;19.70;99.90;;;;;;5072060;28;20115;-72
2023/07/09 03:35:51;;;;;;;10.45;7.35;;;19.70;99.90;;;;;;5069592;28;20039;-72
2023/07/09 03:38:17;;;;;;;10.00;7.50;;;19.60;99.90;;;;;;5058111;28;20034;-72
2023/07/09 03:40:44;;;;;;;11.75;7.15;;;19.60;99.90;;;;;;5038090;28;20045;-72
2023/07/09 03:43:10;;;;;;;11.10;7.00;;;19.60;99.90;;;;;;5065743;28;20068;-72
2023/07/09 03:45:37;;;;;;;11.10;7.82;;;19.60;99.90;;;;;;5045760;28;20042;-71
2023/07/09 03:48:04;;;;;;;11.20;7.25;;;19.50;99.90;;;;;;5065419;28;20083;-72
2023/07/09 03:50:30;;;;;;;13.38;8.10;;;19.60;99.90;;;;;;5053781;28;20037;-72
2023/07/09 03:52:55;;;;;;;12.50;7.50;;;19.60;99.90;;;;;;5066452;28;20086;-72
2023/07/09 03:55:21;;;;;;;10.48;7.82;;;19.60;99.90;;;;;;5068428;28;20037;-72
2023/07/09 03:57:47;;;;;;;10.27;6.95;;;19.60;99.90;;;;;;5046679;28;20033;-72
2023/07/09 04:00:14;;;;;;;10.27;7.50;;;19.60;99.90;;;;;;5051540;28;20041;-72
2023/07/09 04:02:40;;;;;;;10.02;7.35;;;19.60;99.90;;;;;;5058562;28;20033;-72
2023/07/09 04:05:08;;;;;;;11.95;7.90;;;19.60;99.90;;;;;;5065017;28;20064;-72
2023/07/09 04:07:34;;;;;;;11.93;7.47;;;19.60;99.90;;;;;;5038787;28;20033;-72
2023/07/09 04:10:00;;;;;;;14.27;7.13;;;19.60;99.90;;;;;;5057908;28;20048;-72
2023/07/09 04:12:26;;;;;;;10.45;7.47;;;19.70;99.90;;;;;;5064310;28;20036;-72
2023/07/09 04:14:51;;;;;;;10.73;7.80;;;19.70;99.90;;;;;;5068871;28;20123;-72
2023/07/09 04:17:17;;;;;;;10.20;6.95;;;19.70;99.90;;;;;;5051740;28;20033;-72
2023/07/09 04:19:42;;;;;;;11.65;7.78;;;19.70;99.90;;;;;;5053713;28;20115;-72
2023/07/09 04:22:10;;;;;;;9.80;7.10;;;19.80;99.90;;;;;;5066654;28;20029;-72
2023/07/09 04:24:36;;;;;;;10.95;7.85;;;19.80;99.90;;;;;;5068521;28;20112;-72
2023/07/09 04:27:02;;;;;;;10.40;7.75;;;19.90;99.90;;;;;;5055043;28;20121;-73
2023/07/09 04:29:35;;;;;;;13.23;7.63;;;19.90;99.90;;;;;;5057328;28;20060;-72
2023/07/09 04:32:12;;;;;;;10.15;7.20;;;19.90;99.90;;;;;;5062430;28;20119;-72
2023/07/09 04:34:38;;;;;;;12.50;7.57;;;20.00;99.90;;;;;;5053502;28;20595;-72
2023/07/09 04:37:09;;;;;;;11.93;8.05;;;20.00;99.90;;;;;;5054795;28;20041;-72
2023/07/09 04:39:35;;;;;;;11.68;7.22;;;20.10;99.90;;;;;;5067935;28;20036;-72
2023/07/09 04:42:01;;;;;;;11.40;7.72;;;20.10;99.90;;;;;;5071919;28;20052;-72
2023/07/09 04:44:27;;;;;;;11.38;7.45;;;20.10;99.90;;;;;;5068839;28;20032;-72
2023/07/09 04:46:52;;;;;;;11.35;8.25;;;20.10;99.90;;;;;;5052824;28;20392;-73
2023/07/09 04:49:18;;;;;;;10.55;7.15;;;20.20;99.90;;;;;;5076853;28;20116;-72
2023/07/09 04:51:43;;;;;;;14.52;8.02;;;20.20;99.90;;;;;;5060941;28;20455;-72
2023/07/09 04:54:09;;;;;;;11.48;7.38;;;20.30;99.90;;;;;;5052098;28;20036;-72
2023/07/09 04:56:36;;;;;;;10.65;7.93;;;20.40;99.90;;;;;;5070963;28;20502;-72
2023/07/09 04:59:02;;;;;;;12.68;8.13;;;20.40;99.90;;;;;;5063809;28;20078;-72
2023/07/09 05:01:28;;;;;;;11.63;8.10;;;20.50;99.90;;;;;;5047155;28;20431;-72
2023/07/09 05:03:54;;;;;;;10.82;7.80;;;20.50;99.90;;;;;;5067644;28;20384;-72
2023/07/09 05:06:21;;;;;;;10.48;7.65;;;20.50;99.90;;;;;;5040695;28;20127;-73
2023/07/09 05:08:48;;;;;;;11.18;7.88;;;20.70;99.90;;;;;;5069026;28;20040;-72
2023/07/09 05:11:14;;;;;;;10.70;7.38;;;20.70;99.90;;;;;;5064095;28;20572;-72
2023/07/09 05:13:40;;;;;;;11.25;7.70;;;20.70;99.90;;;;;;5072785;28;20363;-72
2023/07/09 05:16:06;;;;;;;10.20;7.65;;;20.70;99.90;;;;;;5073375;28;20476;-73
2023/07/09 05:18:32;;;;;;;13.48;7.97;;;20.80;99.90;;;;;;5087324;28;20033;-72
2023/07/09 05:20:57;;;;;;;12.25;8.30;;;20.80;99.90;;;;;;5074969;28;20040;-73
2023/07/09 05:23:24;;;;;;;11.23;8.23;;;20.80;99.90;;;;;;5073679;28;20054;-73
2023/07/09 05:25:55;;;;;;;10.98;8.05;;;20.80;99.90;;;;;;5073666;28;20556;-73
2023/07/09 05:28:21;;;;;;;12.27;8.10;;;20.90;99.90;;;;;;5055855;28;20048;-73
2023/07/09 05:30:46;;;;;;;12.02;8.45;;;20.90;99.90;;;;;;5075387;28;20278;-73
2023/07/09 05:33:12;;;;;;;11.50;7.85;;;21.00;99.90;;;;;;5072573;28;20048;-73
2023/07/09 05:35:38;;;;;;;13.13;8.38;;;21.00;99.90;;;;;;5089478;28;20233;-72
2023/07/09 05:38:03;;;;;;;13.32;8.07;;;21.10;99.90;;;;;;5053831;28;20378;-73
2023/07/09 05:40:30;;;;;;;13.00;8.20;;;21.10;99.90;;;;;;5055713;28;20024;-73
2023/07/09 05:42:55;;;;;;;11.25;8.48;;;21.10;99.90;;;;;;5072672;28;20039;-73
2023/07/09 05:45:21;;;;;;;12.00;8.93;;;21.30;99.90;;;;;;5055320;28;20033;-73
2023/07/09 05:47:46;;;;;;;12.15;8.43;;;21.40;99.90;;;;;;5082696;28;20036;-73
2023/07/09 05:50:12;;;;;;;14.00;8.18;;;21.40;99.90;;;;;;5071740;28;20040;-73
2023/07/09 05:52:37;;;;;;;13.48;8.50;;;21.40;99.90;;;;;;5073074;28;20094;-73
2023/07/09 05:55:03;;;;;;;12.73;9.02;;;21.40;99.90;;;;;;5070888;28;20055;-73
2023/07/09 05:57:29;;;;;;;14.30;9.05;;;21.40;99.90;;;;;;5055333;28;20037;-73
2023/07/09 05:59:54;;;;;;;12.15;8.77;;;21.50;99.90;;;;;;5072252;28;20488;-73
2023/07/09 06:02:21;;;;;;;12.80;8.52;;;21.50;99.90;;;;;;5056294;28;20044;-73
2023/07/09 06:04:50;;;;;;;12.55;9.00;;;21.50;99.90;;;;;;5070411;28;20043;-73
2023/07/09 06:07:16;;;;;;;13.10;8.80;;;21.50;99.90;;;;;;5072645;28;20041;-73
2023/07/09 06:09:41;;;;;;;13.38;9.23;;;21.50;99.90;;;;;;5070728;28;20408;-73
2023/07/09 06:12:08;;;;;;;15.27;9.00;;;21.50;99.90;;;;;;5054701;28;20409;-73
2023/07/09 06:14:34;;;;;;;12.45;8.77;;;21.60;99.90;;;;;;5063567;28;20070;-73
2023/07/09 06:17:01;;;;;;;12.88;8.70;;;21.60;99.90;;;;;;5066083;28;20175;-73
2023/07/09 06:19:27;;;;;;;13.07;8.95;;;21.70;99.90;;;;;;5064424;28;20092;-73
2023/07/09 06:21:52;;;;;;;13.73;9.32;;;21.70;99.90;;;;;;5045693;28;20090;-72
2023/07/09 06:24:18;;;;;;;13.13;8.25;;;21.80;99.90;;;;;;5061766;28;20408;-73
2023/07/09 06:26:44;;;;;;;13.48;8.45;;;21.80;99.90;;;;;;5064672;28;20032;-73
2023/07/09 06:29:09;;;;;;;12.45;8.95;;;21.90;99.90;;;;;;5071336;28;20049;-73
2023/07/09 06:31:37;;;;;;;12.15;9.27;;;22.00;99.90;;;;;;5071624;28;20489;-73
2023/07/09 06:34:03;;;;;;;12.05;8.65;;;22.10;99.90;;;;;;5049872;28;20131;-73
2023/07/09 06:36:28;;;;;;;14.10;9.93;;;22.10;99.90;;;;;;5063254;28;20131;-73
2023/07/09 06:38:54;;;;;;;13.02;8.82;;;22.30;99.90;;;;;;5055546;28;20405;-73
2023/07/09 06:41:20;;;;;;;12.98;9.90;;;22.50;99.90;;;;;;5043967;28;20036;-73
2023/07/09 06:43:46;;;;;;;12.43;9.35;;;22.60;99.90;;;;;;5069230;28;20393;-73
2023/07/09 06:46:15;;;;;;;13.90;9.43;;;22.70;99.90;;;;;;5048935;28;20045;-73
2023/07/09 06:48:41;;;;;;;14.23;10.38;;;22.80;99.90;;;;;;5056604;28;20516;-73
2023/07/09 06:51:06;;;;;;;17.98;9.50;;;22.80;99.90;;;;;;5055674;28;20041;-73
2023/07/09 06:53:32;;;;;;;13.90;10.05;;;23.00;99.90;;;;;;5069702;28;20037;-73
2023/07/09 06:56:01;;;;;;;17.33;10.93;;;23.10;99.90;;;;;;5061811;28;20040;-73
2023/07/09 06:58:28;;;;;;;14.25;10.45;;;23.20;99.90;;;;;;5069216;28;20044;-73
2023/07/09 07:00:54;;;;;;;16.90;10.45;;;23.20;99.90;;;;;;5051248;28;20120;-73
2023/07/09 07:03:21;;;;;;;15.73;10.63;;;23.30;99.90;;;;;;5072350;28;20484;-73
2023/07/09 07:05:53;;;;;;;14.32;10.18;;;23.40;99.90;;;;;;5053137;28;20044;-73
2023/07/09 07:08:19;;;;;;;;;;;23.40;99.90;;;;;;5049888;28;20040;-73
2023/07/09 07:10:47;;;;;;;17.67;11.25;;;23.50;99.90;;;;;;5066676;28;19954;-73
2023/07/09 07:13:13;;;;;;;16.13;11.35;;;23.50;99.90;;;;;;5066583;28;20036;-73
2023/07/09 07:15:39;;;;;;;15.60;10.85;;;23.80;99.90;;;;;;5070656;28;20048;-73
2023/07/09 07:18:05;;;;;;;15.15;10.73;;;23.90;99.90;;;;;;5065880;28;20033;-73
2023/07/09 07:20:31;;;;;;;15.15;10.40;;;23.90;99.90;;;;;;5061214;28;20037;-73
2023/07/09 07:22:57;;;;;;;14.40;11.02;;;24.00;99.90;;;;;;5068379;28;20040;-73
2023/07/09 07:25:23;;;;;;;14.63;10.00;;;24.10;99.90;;;;;;5038862;28;20060;-73
2023/07/09 07:27:49;;;;;;;15.98;10.70;;;24.20;99.90;;;;;;5052769;28;20041;-73
2023/07/09 07:30:15;;;;;;;15.48;10.32;;;24.30;99.90;;;;;;5038704;28;20041;-73
2023/07/09 07:32:46;;;;;;;15.73;10.52;;;24.30;99.90;;;;;;5065819;28;20438;-73
2023/07/09 07:35:13;;;;;;;14.32;9.75;;;24.30;99.90;;;;;;5069008;28;20037;-73
2023/07/09 07:37:39;;;;;;;13.85;10.25;;;24.40;99.90;;;;;;5070417;28;20051;-73
2023/07/09 07:40:06;;;;;;;13.75;10.23;;;24.40;99.90;;;;;;5052894;28;20135;-73
2023/07/09 07:42:32;;;;;;;12.82;9.02;;;24.50;99.90;;;;;;5058656;28;20037;-73
2023/07/09 07:44:58;;;;;;;15.13;9.30;;;24.50;99.90;;;;;;5038993;28;20038;-73
2023/07/09 07:47:23;;;;;;;14.88;9.00;;;24.70;99.90;;;;;;5050212;28;20123;-73
2023/07/09 07:49:49;;;;;;;12.98;8.82;;;24.90;99.90;;;;;;5070356;28;20062;-73
2023/07/09 07:52:15;;;;;;;12.70;8.77;;;25.00;99.90;;;;;;5059773;28;20158;-73
2023/07/09 07:54:40;;;;;;;13.68;8.60;;;25.10;99.90;;;;;;5080816;28;20036;-73
2023/07/09 07:57:08;;;;;;;13.73;8.80;;;25.20;99.90;;;;;;5071290;28;20408;-75
2023/07/09 07:59:35;;;;;;;13.85;9.00;;;25.30;99.90;;;;;;5054165;28;20098;-77
2023/07/09 08:02:02;;;;;;;12.65;8.82;;;25.40;99.90;;;;;;5055277;28;20392;-73
2023/07/09 08:04:27;;;;;;;14.70;8.63;;;25.40;99.90;;;;;;5038368;28;20482;-73
2023/07/09 08:06:53;;;;;;;12.27;9.13;;;25.50;99.90;;;;;;5038725;28;20132;-73
2023/07/09 08:09:19;;;;;;;12.07;8.98;;;25.50;99.90;;;;;;5040605;28;20509;-73
2023/07/09 08:11:44;;;;;;;12.43;8.68;;;25.60;99.90;;;;;;5038458;28;20493;-73
2023/07/09 08:14:11;;;;;;;13.68;9.05;;;25.60;99.90;;;;;;5050162;28;20098;-73
2023/07/09 08:16:36;;;;;;;13.13;9.05;;;25.70;99.90;;;;;;5054943;28;20040;-74
2023/07/09 08:19:02;;;;;;;12.43;8.05;;;25.80;99.90;;;;;;5065882;28;20497;-74
2023/07/09 08:21:27;;;;;;;14.82;8.98;;;25.80;99.90;;;;;;5075027;28;20125;-73
2023/07/09 08:23:53;;;;;;;13.45;8.05;;;26.00;99.90;;;;;;5074086;28;20039;-73
2023/07/09 08:26:18;;;;;;;13.70;8.18;;;26.10;99.90;;;;;;5064381;28;20032;-73
2023/07/09 08:28:44;;;;;;;13.07;9.05;;;26.10;99.90;;;;;;5062681;28;20064;-74
2023/07/09 08:31:10;;;;;;;13.05;8.35;;;26.20;99.90;;;;;;5076191;28;20055;-73
2023/07/09 08:33:36;;;;;;;11.95;7.57;;;26.30;99.90;;;;;;5073960;28;20036;-73
2023/07/09 08:36:02;;;;;;;13.43;8.50;;;26.30;99.90;;;;;;5074724;28;20040;-74
2023/07/09 08:38:28;;;;;;;12.80;7.63;;;26.30;99.90;;;;;;5052973;28;20033;-74
2023/07/09 08:41:24;;;;;;;12.88;7.68;;;26.30;99.90;;;;;;5055777;28;20126;-74
2023/07/09 08:44:08;;;;;;;10.65;7.22;;;26.40;99.90;;;;;;5062206;28;20033;-73
2023/07/09 08:47:00;;;;;;;12.18;7.50;;;26.60;99.90;;;;;;5075699;28;20040;-74
2023/07/09 08:49:52;;;;;;;10.57;6.80;;;26.60;99.90;;;;;;5061216;28;20048;-74
2023/07/09 08:52:39;;;;;;;12.57;7.20;;;26.80;99.90;;;;;;5078941;28;20041;-74
2023/07/09 08:55:28;;;;;;;10.77;7.65;;;26.90;99.90;;;;;;5073637;28;20408;-74
2023/07/09 08:58:00;;;;;;;9.23;6.72;;;27.00;99.90;;;;;;5056049;28;20070;-74
2023/07/09 09:00:52;;;;;;;13.18;7.65;;;27.10;99.90;;;;;;5069622;28;20047;-74
2023/07/09 09:03:30;;;;;;;12.43;8.07;;;27.20;99.90;;;;;;5056529;28;20048;-74
2023/07/09 09:05:57;;;;;;;14.23;8.07;;;27.30;99.90;;;;;;5054350;28;20485;-73
2023/07/09 09:08:28;;;;;;;13.00;8.48;;;27.30;99.90;;;;;;5055173;28;20032;-74
2023/07/09 09:11:10;;;;;;;12.27;8.00;;;27.40;99.90;;;;;;5054248;28;20041;-75
2023/07/09 09:13:38;;;;;;;15.00;8.65;;;27.40;99.90;;;;;;5054143;28;20477;-75
2023/07/09 09:16:12;;;;;;;12.15;7.97;;;27.40;99.90;;;;;;5054011;28;20379;-75
2023/07/09 09:18:42;;;;;;;13.45;8.45;;;27.40;99.90;;;;;;5070823;28;20033;-78
2023/07/09 09:21:29;;;;;;;13.55;8.20;;;27.50;99.90;;;;;;5050165;28;20036;-74
2023/07/09 09:23:59;;;;;;;11.93;8.48;;;27.60;99.90;;;;;;5078149;28;20080;-74
2023/07/09 09:26:33;;;;;;;11.88;7.30;;;27.70;99.90;;;;;;5070342;28;20044;-74
2023/07/09 09:28:59;;;;;;;11.40;8.50;;;27.70;99.90;;;;;;5067157;28;20078;-74
2023/07/09 09:31:28;;;;;;;13.07;8.07;;;27.80;99.90;;;;;;5054950;28;20043;-74
2023/07/09 09:33:53;;;;;;;10.23;7.35;;;27.80;99.90;;;;;;5071372;28;20041;-74
2023/07/09 09:36:25;;;;;;;13.32;7.80;;;27.90;99.90;;;;;;5073034;28;20119;-74
2023/07/09 09:38:51;;;;;;;11.95;7.50;;;27.90;99.90;;;;;;5066982;28;20036;-74
2023/07/09 09:41:20;;;;;;;12.77;7.93;;;28.00;99.90;;;;;;5052477;28;20033;-74
2023/07/09 09:43:47;;;;;;;11.88;7.55;;;28.10;99.90;;;;;;5054346;28;20048;-74
2023/07/09 09:46:23;;;;;;;15.35;8.52;;;28.20;99.90;;;;;;5069776;28;20075;-74
2023/07/09 09:48:51;;;;;;;13.82;8.63;;;28.30;99.90;;;;;;5052875;28;20087;-74
2023/07/09 09:51:18;;;;;;;13.15;7.45;;;28.30;99.90;;;;;;5055739;28;20093;-74
2023/07/09 09:53:55;;;;;;;13.30;7.95;;;28.40;99.90;;;;;;5072381;28;20045;-74
2023/07/09 09:56:30;;;;;;;12.75;8.00;;;28.50;99.90;;;;;;5069436;28;20504;-74
2023/07/09 09:58:57;;;;;;;11.05;7.45;;;28.50;99.90;;;;;;5059454;28;20048;-74
2023/07/09 10:01:31;;;;;;;13.07;7.55;;;28.50;99.90;;;;;;5034811;28;20120;-74
2023/07/09 10:03:59;;;;;;;11.73;7.85;;;28.60;99.90;;;;;;5052196;28;20036;-74
2023/07/09 10:06:39;;;;;;;12.00;7.22;;;28.70;99.90;;;;;;5050695;28;20041;-74
2023/07/09 10:09:36;;;;;;;12.18;7.18;;;28.80;99.90;;;;;;5058734;28;20059;-74
2023/07/09 10:12:16;;;;;;;14.52;7.75;;;28.90;99.90;;;;;;5052691;28;20116;-74
2023/07/09 10:14:50;;;;;;;11.73;6.95;;;29.00;99.90;;;;;;5061270;28;20072;-74
2023/07/09 10:17:47;;;;;;;10.15;7.60;;;29.00;99.90;;;;;;5052347;28;20439;-74
2023/07/09 10:20:25;;;;;;;11.55;8.10;;;29.00;99.90;;;;;;5068503;28;20036;-74
2023/07/09 10:23:15;;;;;;;11.43;8.05;;;29.10;99.90;;;;;;5048703;28;20029;-74
2023/07/09 10:25:51;;;;;;;12.25;7.43;;;29.10;99.90;;;;;;5072652;28;20040;-74
2023/07/09 10:28:48;;;;;;;11.23;7.60;;;29.10;99.90;;;;;;5048658;28;20045;-74
2023/07/09 10:31:26;;;;;;;12.07;7.95;;;29.10;99.90;;;;;;5052125;28;20041;-74
2023/07/09 10:34:26;;;;;;;10.98;6.57;;;29.10;99.90;;;;;;5071845;28;20484;-74
2023/07/09 10:37:04;;;;;;;11.80;7.68;;;29.10;99.90;;;;;;5045885;28;20459;-74
2023/07/09 10:39:46;;;;;;;13.90;7.63;;;29.20;99.90;;;;;;5069099;28;20040;-74
2023/07/09 10:42:35;;;;;;;11.07;7.68;;;29.10;99.90;;;;;;5065124;28;20124;-74
2023/07/09 10:45:40;;;;;;;15.50;8.20;;;29.20;99.90;;;;;;5066537;28;20048;-74
2023/07/09 10:48:16;;;;;;;13.43;7.72;;;29.30;99.90;;;;;;5018129;28;20075;-74
2023/07/09 10:50:53;;;;;;;12.13;7.82;;;29.30;99.90;;;;;;5027930;28;20520;-74
2023/07/09 10:53:37;;;;;;;12.77;7.60;;;29.40;99.90;;;;;;5042502;28;20090;-74
2023/07/09 10:56:11;;;;;;;12.60;8.05;;;29.40;99.90;;;;;;5070394;28;20064;-74
2023/07/09 10:58:49;;;;;;;11.75;7.43;;;29.40;99.90;;;;;;5055057;28;20067;-74
2023/07/09 11:01:16;;;;;;;14.52;7.97;;;29.40;99.90;;;;;;5056047;28;20065;-74
2023/07/09 11:03:50;;;;;;;11.90;7.50;;;29.50;99.90;;;;;;5053484;28;20413;-75
2023/07/09 11:06:21;;;;;;;11.55;7.20;;;29.60;99.90;;;;;;5040247;28;20042;-75
2023/07/09 11:08:51;;;;;;;12.10;7.82;;;29.60;99.90;;;;;;5071215;28;20036;-74
2023/07/09 11:11:39;;;;;;;12.57;7.50;;;29.70;99.90;;;;;;5067978;28;20496;-75
2023/07/09 11:14:17;;;;;;;12.52;7.40;;;29.70;99.90;;;;;;5078126;28;20044;-75
2023/07/09 11:16:43;;;;;;;10.48;6.57;;;29.80;99.90;;;;;;5056263;28;20041;-75
2023/07/09 11:19:20;;;;;;;11.52;7.38;;;29.90;99.30;;;;;;5067189;28;20045;-75
2023/07/09 11:22:07;;;;;;;10.52;6.85;;;29.90;99.10;;;;;;5060960;28;20083;-74
2023/07/09 11:24:50;;;;;;;12.73;6.70;;;30.00;99.90;;;;;;5063981;28;20044;-75
2023/07/09 11:27:22;;;;;;;11.63;7.15;;;30.00;98.90;;;;;;5050947;28;20033;-74
2023/07/09 11:30:00;;;;;;;12.05;7.60;;;30.00;99.10;;;;;;5037285;28;20082;-74
2023/07/09 11:32:27;;;;;;;10.15;6.97;;;30.10;98.90;;;;;;5052277;28;20044;-74
2023/07/09 11:34:53;;;;;;;10.15;7.50;;;30.10;99.00;;;;;;5064542;28;20119;-74
2023/07/09 11:37:23;;;;;;;10.68;6.95;;;30.10;99.20;;;;;;5074378;28;20569;-74
2023/07/09 11:39:48;;;;;;;11.30;5.82;;;30.00;99.30;;;;;;5037980;28;20524;-75
2023/07/09 11:42:46;;;;;;;10.32;5.45;;;30.00;98.80;;;;;;5038388;28;20116;-75
2023/07/09 11:45:15;;;;;;;10.55;6.43;;;30.10;98.00;;;;;;5068976;28;20124;-75
2023/07/09 11:47:49;;;;;;;11.25;5.70;;;30.20;96.30;;;;;;5038658;28;20189;-75
2023/07/09 11:50:21;;;;;;;8.82;5.80;;;30.30;96.50;;;;;;5060619;28;20527;-75
2023/07/09 11:52:53;;;;;;;9.45;5.47;;;30.30;96.20;;;;;;5041369;28;20451;-75
2023/07/09 11:55:27;;;;;;;11.18;6.50;;;30.30;96.80;;;;;;5059137;28;20377;-75
2023/07/09 11:58:03;;;;;;;9.90;6.03;;;30.40;95.60;;;;;;5054742;28;20556;-75
2023/07/09 12:00:36;;;;;;;10.43;6.10;;;30.30;96.80;;;;;;5040671;28;20078;-75
2023/07/09 12:03:02;;;;;;;10.50;5.88;;;30.30;97.00;;;;;;5055701;28;20041;-75
2023/07/09 12:05:29;;;;;;;10.18;6.15;;;30.30;96.00;;;;;;5059429;28;20505;-74
2023/07/09 12:07:56;;;;;;;9.45;6.03;;;30.30;96.20;;;;;;5057493;28;20048;-75
2023/07/09 12:10:31;;;;;;;9.90;6.15;;;30.30;96.50;;;;;;5061910;28;20062;-75
2023/07/09 12:12:59;;;;;;;9.10;5.93;;;30.20;96.60;;;;;;5041458;28;20032;-75
2023/07/09 12:15:27;;;;;;;10.52;6.20;;;30.30;97.50;;;;;;5048958;28;20040;-75
2023/07/09 12:17:55;;;;;;;11.05;6.32;;;30.30;96.50;;;;;;5051630;28;20476;-74
2023/07/09 12:20:21;;;;;;;11.40;6.38;;;30.30;96.50;;;;;;5055509;28;20111;-75
2023/07/09 12:22:47;;;;;;;14.45;6.15;;;30.30;96.70;;;;;;5041938;28;20144;-74
2023/07/09 12:25:27;;;;;;;10.95;5.97;;;30.50;96.70;;;;;;5039640;28;20037;-75
2023/07/09 12:27:53;;;;;;;10.55;6.40;;;30.50;95.50;;;;;;5061827;28;20459;-75
2023/07/09 12:30:20;;;;;;;12.10;6.75;;;30.50;96.00;;;;;;5035669;28;20090;-75
2023/07/09 12:32:49;;;;;;;11.02;6.47;;;30.40;95.30;;;;;;5055244;28;20397;-75
2023/07/09 12:35:15;;;;;;;10.45;6.18;;;30.40;96.00;;;;;;5043595;28;20041;-75
2023/07/09 12:37:44;;;;;;;12.15;6.72;;;30.20;96.90;;;;;;5052518;28;20041;-75
2023/07/09 12:40:30;;;;;;;9.25;6.00;;;30.20;96.60;;;;;;5053481;28;20116;-75
2023/07/09 12:42:57;;;;;;;9.90;6.00;;;30.00;96.00;;;;;;5058426;28;20072;-75
2023/07/09 12:45:23;;;;;;;9.60;6.00;;;30.00;96.40;;;;;;5063375;28;20115;-75
2023/07/09 12:47:50;;;;;;;10.23;6.38;;;29.90;97.00;;;;;;5045652;28;20068;-75
2023/07/09 12:50:18;;;;;;;10.77;6.35;;;29.90;98.80;;;;;;5035297;28;20060;-75